Alcot, South Carolina
Current Conditions -  °F | °C
As of 4:55 AM on Monday 22 Dec 2014 (Local Time) from KHVS Reporting Station
Overcast Overcast  
Wind Chill: 39°   Ceiling: 500
Heat Index: 43°   Visibility: 10mi
Dew Point: 43°   Wind: 7mph
Humidity: 100%   Direction: 30°NNE
Pressure: 30.09"   Gusts: NA
Location:  34.2324°N, 80.2824°W
Report Text: KHVS 220955Z AUTO 03006KT 10SM BKN005 BKN009 OVC019 06/06 A3009 RMK AO2
Loading
Personal Weather Stations






























Interactive Weather Map New forecast layout! Learn more

10-Day Weather Forecast

Advertisements
Track Severe Weather on mobile